Time;durP1;ratioP1;P1;durP2;ratioP2;P2;SDS_P1;SDS_P2;PMS_P1;PMS_P2;Temp;Humidity;BMP_temperature;BMP_pressure;BME280_temperature;BME280_humidity;BME280_pressure;Samples;Min_cycle;Max_cycle;Signal;HPM_P1;HPM_P2
2021/12/18 00:00:55;;;;;;;;;;;;;;;;;;5031016;28;2059;-78
2021/12/18 00:03:20;;;;;;;;;;;;;;;;;;5069232;28;1715;-78
2021/12/18 00:05:46;;;;;;;;;;;;;;;;;;5059212;28;1695;-79
2021/12/18 00:08:11;;;;;;;;;;;;;;;;;;5019543;28;1709;-78
2021/12/18 00:10:38;;;;;;;;;;;;;;;;;;5027649;28;2083;-79
2021/12/18 00:13:03;;;;;;;;;;;;;;;;;;5019383;28;1955;-78
2021/12/18 00:15:32;;;;;;;;;;;;;;;;;;5031799;28;1737;-79
2021/12/18 00:18:00;;;;;;;;;;;;;;;;;;5063001;28;1622;-78
2021/12/18 00:20:27;;;;;;;;;;;;;;;;;;5013196;28;858;-78
2021/12/18 00:22:52;;;;;;;;;;;;;;;;;;5031337;28;1609;-80
2021/12/18 00:25:25;;;;;;;;;;;;;;;;;;5054809;28;1691;-80
2021/12/18 00:27:53;;;;;;;;;;;;;;;;;;5047718;28;1680;-81
2021/12/18 00:30:18;;;;;;;;;;;;;;;;;;5029786;28;1682;-80
2021/12/18 00:32:43;;;;;;;;;;;;;;;;;;5033931;28;1902;-81
2021/12/18 00:35:09;;;;;;;;;;;;;;;;;;5038708;28;1767;-82
2021/12/18 00:37:34;;;;;;;;;;;;;;;;;;5031653;28;1619;-81
2021/12/18 00:40:00;;;;;;;;;;;;;;;;;;5060740;28;1616;-82
2021/12/18 00:42:40;;;;;;;;;;;;;;;;;;5031043;28;1505;-81
2021/12/18 00:45:09;;;;;;;;;;;;;;;;;;5056608;28;1714;-82
2021/12/18 00:47:34;;;;;;;;;;;;;;;;;;5076574;28;1134;-81
2021/12/18 00:49:59;;;;;;;;;;;;;;;;;;5065879;28;1700;-82
2021/12/18 00:52:25;;;;;;;;;;;;;;;;;;5034307;28;1969;-83
2021/12/18 00:54:51;;;;;;;;;;;;;;;;;;5030919;28;1653;-82
2021/12/18 00:57:16;;;;;;;;;;;;;;;;;;5039715;28;1611;-81
2021/12/18 00:59:41;;;;;;;;;;;;;;;;;;5023449;28;1636;-79
2021/12/18 01:02:06;;;;;;;;;;;;;;;;;;5031075;28;1615;-76
2021/12/18 01:04:31;;;;;;;;;;;;;;;;;;5027930;28;1627;-76
2021/12/18 01:06:57;;;;;;;;;;;;;;;;;;5027063;28;1619;-77
2021/12/18 01:09:33;;;;;;;;;;;;;;;;;;5033167;28;1347;-77
2021/12/18 01:11:59;;;;;;;;;;;;;;;;;;5031728;28;1552;-77
2021/12/18 01:24:44;;;;;;;;;;;;;;;;;;5022302;28;1663;-77
2021/12/18 01:27:10;;;;;;;;;;;;;;;;;;5022642;28;1573;-77
2021/12/18 01:29:35;;;;;;;;;;;;;;;;;;5032272;28;1597;-77
2021/12/18 01:32:00;;;;;;;;;;;;;;;;;;5030451;28;1697;-77
2021/12/18 01:34:25;;;;;;;;;;;;;;;;;;5029785;28;1924;-77
2021/12/18 01:36:50;;;;;;;;;;;;;;;;;;5018157;28;1611;-78
2021/12/18 01:39:16;;;;;;;;;;;;;;;;;;5018837;28;1660;-78
2021/12/18 01:42:02;;;;;;;;;;;;;;;;;;5018654;28;1669;-78
2021/12/18 01:44:54;;;;;;;;;;;;;;;;;;5032124;28;1621;-77
2021/12/18 01:52:53;;;;;;;;;;;;;;;;;;5030922;28;1902;-77
2021/12/18 01:55:19;;;;;;;;;;;;;;;;;;5049813;28;1666;-77
2021/12/18 01:57:44;;;;;;;;;;;;;;;;;;5019329;28;1789;-77
2021/12/18 02:00:15;;;;;;;;;;;;;;;;;;5030712;28;1639;-77
2021/12/18 02:02:41;;;;;;;;;;;;;;;;;;5022998;28;1401;-77
2021/12/18 02:05:06;;;;;;;;;;;;;;;;;;5026042;28;1748;-77
2021/12/18 02:07:31;;;;;;;;;;;;;;;;;;5027650;28;1825;-77
2021/12/18 02:10:07;;;;;;;;;;;;;;;;;;5031988;28;1595;-77
2021/12/18 02:12:50;;;;;;;;;;;;;;;;;;5028706;28;1934;-77
2021/12/18 02:20:45;;;;;;;;;;;;;;;;;;5023162;28;1821;-77
2021/12/18 02:23:10;;;;;;;;;;;;;;;;;;5016897;28;1590;-77
2021/12/18 02:25:36;;;;;;;;;;;;;;;;;;5050821;28;1755;-77
2021/12/18 02:28:02;;;;;;;;;;;;;;;;;;5016540;28;1722;-77
2021/12/18 02:30:30;;;;;;;;;;;;;;;;;;5028164;28;1720;-77
2021/12/18 02:32:55;;;;;;;;;;;;;;;;;;5029720;28;1972;-77
2021/12/18 02:35:28;;;;;;;;;;;;;;;;;;5027720;28;1600;-76
2021/12/18 02:38:09;;;;;;;;;;;;;;;;;;5020800;28;1498;-77
2021/12/18 02:43:12;;;;;;;;;;;;;;;;;;5029976;28;1602;-77
2021/12/18 02:45:37;;;;;;;;;;;;;;;;;;5032339;28;1024;-77
2021/12/18 02:48:04;;;;;;;;;;;;;;;;;;5016018;28;1794;-77
2021/12/18 02:50:30;;;;;;;;;;;;;;;;;;5029369;28;1671;-77
2021/12/18 02:52:55;;;;;;;;;;;;;;;;;;5023483;28;1899;-77
2021/12/18 02:55:20;;;;;;;;;;;;;;;;;;5017052;28;1683;-77
2021/12/18 02:57:45;;;;;;;;;;;;;;;;;;5016066;28;1693;-77
2021/12/18 03:00:11;;;;;;;;;;;;;;;;;;5019894;28;1763;-77
2021/12/18 03:02:41;;;;;;;;;;;;;;;;;;5012960;28;1460;-77
2021/12/18 03:05:09;;;;;;;;;;;;;;;;;;5030397;28;1571;-77
2021/12/18 03:07:34;;;;;;;;;;;;;;;;;;5015747;28;1622;-77
2021/12/18 03:25:41;;;;;;;;;;;;;;;;;;5020416;28;1566;-76
2021/12/18 03:28:07;;;;;;;;;;;;;;;;;;5030674;28;1556;-76
2021/12/18 03:30:33;;;;;;;;;;;;;;;;;;5032905;28;1569;-76
2021/12/18 03:32:58;;;;;;;;;;;;;;;;;;5020244;28;1914;-76
2021/12/18 03:35:24;;;;;;;;;;;;;;;;;;5035932;28;1616;-76
2021/12/18 03:37:49;;;;;;;;;;;;;;;;;;5050749;28;1657;-76
2021/12/18 03:40:18;;;;;;;;;;;;;;;;;;5017875;28;1609;-76
2021/12/18 03:42:46;;;;;;;;;;;;;;;;;;5028033;28;1607;-76
2021/12/18 03:45:11;;;;;;;;;;;;;;;;;;5032472;28;1546;-77
2021/12/18 03:47:37;;;;;;;;;;;;;;;;;;5051228;28;1660;-76
2021/12/18 03:50:03;;;;;;;;;;;;;;;;;;5022944;28;1495;-77
2021/12/18 03:52:28;;;;;;;;;;;;;;;;;;5029929;28;1905;-77
2021/12/18 03:54:53;;;;;;;;;;;;;;;;;;5015542;28;1849;-77
2021/12/18 03:57:19;;;;;;;;;;;;;;;;;;5016085;28;1608;-77
2021/12/18 03:59:44;;;;;;;;;;;;;;;;;;5033024;28;1860;-76
2021/12/18 04:02:09;;;;;;;;;;;;;;;;;;5023151;28;1637;-77
2021/12/18 04:04:34;;;;;;;;;;;;;;;;;;5033094;28;1817;-77
2021/12/18 04:07:00;;;;;;;;;;;;;;;;;;5022492;28;1506;-77
2021/12/18 04:09:28;;;;;;;;;;;;;;;;;;5030906;28;1596;-77
2021/12/18 04:11:53;;;;;;;;;;;;;;;;;;5019144;28;1831;-77
2021/12/18 04:14:18;;;;;;;;;;;;;;;;;;5016903;28;1902;-77
2021/12/18 04:16:44;;;;;;;;;;;;;;;;;;5030349;28;1726;-77
2021/12/18 04:19:09;;;;;;;;;;;;;;;;;;5031096;28;1595;-76
2021/12/18 04:21:35;;;;;;;;;;;;;;;;;;5028858;28;1669;-77
2021/12/18 04:24:07;;;;;;;;;;;;;;;;;;5026646;28;1628;-77
2021/12/18 04:26:33;;;;;;;;;;;;;;;;;;5050122;28;1688;-76
2021/12/18 04:28:58;;;;;;;;;;;;;;;;;;5029342;28;1829;-76
2021/12/18 04:31:24;;;;;;;;;;;;;;;;;;5014605;28;1711;-76
2021/12/18 04:33:49;;;;;;;;;;;;;;;;;;5058978;28;1910;-76
2021/12/18 04:36:16;;;;;;;;;;;;;;;;;;5028810;28;1634;-76
2021/12/18 04:38:42;;;;;;;;;;;;;;;;;;5032656;28;1686;-76
2021/12/18 04:41:09;;;;;;;;;;;;;;;;;;5032973;28;1570;-76
2021/12/18 04:43:34;;;;;;;;;;;;;;;;;;5031923;28;1673;-76
2021/12/18 04:46:00;;;;;;;;;;;;;;;;;;5024836;28;1600;-77
2021/12/18 04:48:27;;;;;;;;;;;;;;;;;;5013782;28;1712;-77
2021/12/18 04:50:53;;;;;;;;;;;;;;;;;;5021708;28;1592;-77
2021/12/18 04:53:18;;;;;;;;;;;;;;;;;;5031415;28;1910;-77
2021/12/18 04:55:43;;;;;;;;;;;;;;;;;;5029868;28;1712;-77
2021/12/18 04:58:08;;;;;;;;;;;;;;;;;;5017384;28;1482;-76
2021/12/18 05:00:38;;;;;;;;;;;;;;;;;;5016755;28;1568;-77
2021/12/18 05:03:06;;;;;;;;;;;;;;;;;;5022827;28;1515;-77
2021/12/18 05:05:31;;;;;;;;;;;;;;;;;;5025412;28;1544;-77
2021/12/18 05:07:57;;;;;;;;;;;;;;;;;;5032102;28;1490;-77
2021/12/18 05:10:22;;;;;;;;;;;;;;;;;;5031558;28;1773;-77
2021/12/18 05:12:47;;;;;;;;;;;;;;;;;;5027229;28;1975;-77
2021/12/18 05:15:12;;;;;;;;;;;;;;;;;;5050449;28;1584;-77
2021/12/18 05:17:37;;;;;;;;;;;;;;;;;;5029409;28;1637;-77
2021/12/18 05:20:03;;;;;;;;;;;;;;;;;;5021669;28;1528;-77
2021/12/18 05:22:28;;;;;;;;;;;;;;;;;;5030518;28;1673;-77
2021/12/18 05:24:53;;;;;;;;;;;;;;;;;;5051381;28;1588;-77
2021/12/18 05:27:18;;;;;;;;;;;;;;;;;;5015390;28;1587;-77
2021/12/18 05:29:43;;;;;;;;;;;;;;;;;;5022325;28;1860;-77
2021/12/18 05:32:09;;;;;;;;;;;;;;;;;;5023072;28;1730;-76
2021/12/18 05:34:37;;;;;;;;;;;;;;;;;;5029694;28;1979;-77
2021/12/18 05:39:37;;;;;;;;;;;;;;;;;;5017648;28;1769;-76
2021/12/18 05:42:02;;;;;;;;;;;;;;;;;;5019006;28;1635;-77
2021/12/18 05:44:30;;;;;;;;;;;;;;;;;;5020122;28;1614;-77
2021/12/18 05:46:55;;;;;;;;;;;;;;;;;;5046827;28;1724;-77
2021/12/18 05:49:20;;;;;;;;;;;;;;;;;;5013774;28;1911;-76
2021/12/18 05:51:45;;;;;;;;;;;;;;;;;;5025143;28;1579;-77
2021/12/18 05:54:11;;;;;;;;;;;;;;;;;;5045370;28;1963;-76
2021/12/18 05:56:36;;;;;;;;;;;;;;;;;;5025625;28;1560;-76
2021/12/18 05:59:02;;;;;;;;;;;;;;;;;;5018657;28;1538;-76
2021/12/18 06:01:27;;;;;;;;;;;;;;;;;;5058519;28;1639;-76
2021/12/18 06:03:53;;;;;;;;;;;;;;;;;;5046365;28;1577;-76
2021/12/18 06:06:18;;;;;;;;;;;;;;;;;;5055317;28;1596;-76
2021/12/18 06:08:43;;;;;;;;;;;;;;;;;;5014978;28;1595;-76
2021/12/18 06:11:15;;;;;;;;;;;;;;;;;;5024502;28;1581;-76
2021/12/18 06:13:40;;;;;;;;;;;;;;;;;;5050271;28;1901;-76
2021/12/18 06:16:08;;;;;;;;;;;;;;;;;;5015104;28;1660;-76
2021/12/18 06:18:34;;;;;;;;;;;;;;;;;;5021400;28;1543;-76
2021/12/18 06:20:59;;;;;;;;;;;;;;;;;;5028205;28;1643;-76
2021/12/18 06:23:27;;;;;;;;;;;;;;;;;;5029788;28;1623;-76
2021/12/18 06:25:52;;;;;;;;;;;;;;;;;;5028230;28;1577;-76
2021/12/18 06:28:17;;;;;;;;;;;;;;;;;;5022498;28;1615;-76
2021/12/18 06:30:42;;;;;;;;;;;;;;;;;;5023154;28;1706;-76
2021/12/18 06:33:08;;;;;;;;;;;;;;;;;;5030033;28;1980;-77
2021/12/18 06:35:33;;;;;;;;;;;;;;;;;;5024366;28;1758;-76
2021/12/18 06:37:58;;;;;;;;;;;;;;;;;;5014781;28;1611;-77
2021/12/18 06:40:23;;;;;;;;;;;;;;;;;;5030058;28;1587;-77
2021/12/18 06:42:48;;;;;;;;;;;;;;;;;;5016830;28;1586;-77
2021/12/18 06:45:16;;;;;;;;;;;;;;;;;;5026116;28;1599;-77
2021/12/18 06:47:41;;;;;;;;;;;;;;;;;;5035135;28;1594;-77
2021/12/18 06:50:07;;;;;;;;;;;;;;;;;;5024102;28;1622;-76
2021/12/18 06:52:32;;;;;;;;;;;;;;;;;;5019582;28;1967;-77
2021/12/18 06:54:57;;;;;;;;;;;;;;;;;;5033532;28;1592;-76
2021/12/18 06:57:22;;;;;;;;;;;;;;;;;;5054472;28;1521;-77
2021/12/18 06:59:48;;;;;;;;;;;;;;;;;;5017659;28;1654;-77
2021/12/18 07:02:13;;;;;;;;;;;;;;;;;;5026122;28;1674;-76
2021/12/18 07:04:38;;;;;;;;;;;;;;;;;;5016900;28;1526;-77
2021/12/18 07:07:06;;;;;;;;;;;;;;;;;;5057088;28;1628;-77
2021/12/18 07:09:31;;;;;;;;;;;;;;;;;;5025025;28;1659;-77
2021/12/18 07:11:56;;;;;;;;;;;;;;;;;;5032129;28;1603;-77
2021/12/18 07:14:21;;;;;;;;;;;;;;;;;;5020729;28;1910;-77
2021/12/18 07:16:46;;;;;;;;;;;;;;;;;;5027860;28;1591;-77
2021/12/18 07:19:12;;;;;;;;;;;;;;;;;;5021711;28;1572;-77
2021/12/18 07:21:37;;;;;;;;;;;;;;;;;;5019560;28;1696;-77
2021/12/18 07:24:02;;;;;;;;;;;;;;;;;;5028910;28;1611;-77
2021/12/18 07:26:28;;;;;;;;;;;;;;;;;;5058346;28;1760;-77
2021/12/18 07:28:53;;;;;;;;;;;;;;;;;;5030304;28;1573;-77
2021/12/18 07:31:18;;;;;;;;;;;;;;;;;;5028615;28;1611;-77
2021/12/18 07:33:44;;;;;;;;;;;;;;;;;;5026496;28;1918;-77
2021/12/18 07:36:10;;;;;;;;;;;;;;;;;;5034044;28;1487;-77
2021/12/18 07:38:35;;;;;;;;;;;;;;;;;;5024523;28;1568;-76
2021/12/18 07:41:00;;;;;;;;;;;;;;;;;;5031404;28;1606;-76
2021/12/18 07:43:26;;;;;;;;;;;;;;;;;;5029790;28;1560;-76
2021/12/18 07:45:51;;;;;;;;;;;;;;;;;;5030751;28;1726;-76
2021/12/18 07:48:16;;;;;;;;;;;;;;;;;;5029439;28;1912;-76
2021/12/18 07:50:41;;;;;;;;;;;;;;;;;;5023581;28;1651;-77
2021/12/18 07:53:06;;;;;;;;;;;;;;;;;;5056660;28;1968;-77
2021/12/18 07:55:32;;;;;;;;;;;;;;;;;;5031954;28;1668;-76
2021/12/18 07:57:57;;;;;;;;;;;;;;;;;;5029938;28;1544;-77
2021/12/18 08:00:22;;;;;;;;;;;;;;;;;;5031309;28;1707;-77
2021/12/18 08:02:48;;;;;;;;;;;;;;;;;;5028096;28;1536;-77
2021/12/18 08:05:14;;;;;;;;;;;;;;;;;;5029367;28;1690;-77
2021/12/18 08:07:39;;;;;;;;;;;;;;;;;;5026421;28;1691;-76
2021/12/18 08:10:05;;;;;;;;;;;;;;;;;;5029120;28;1573;-76
2021/12/18 08:12:30;;;;;;;;;;;;;;;;;;5027959;28;1967;-76
2021/12/18 08:14:56;;;;;;;;;;;;;;;;;;5028303;28;1848;-77
2021/12/18 08:17:22;;;;;;;;;;;;;;;;;;5030003;28;1864;-76
2021/12/18 08:19:47;;;;;;;;;;;;;;;;;;5027805;28;1574;-76
2021/12/18 08:22:12;;;;;;;;;;;;;;;;;;5029214;28;2131;-77
2021/12/18 08:24:37;;;;;;;;;;;;;;;;;;5032118;28;1559;-77
2021/12/18 08:27:03;;;;;;;;;;;;;;;;;;5027205;28;1607;-77
2021/12/18 08:29:28;;;;;;;;;;;;;;;;;;5031397;28;1451;-77
2021/12/18 08:31:53;;;;;;;;;;;;;;;;;;5028212;28;1627;-76
2021/12/18 08:34:21;;;;;;;;;;;;;;;;;;5031757;28;1906;-76
2021/12/18 08:36:46;;;;;;;;;;;;;;;;;;5026175;28;1461;-77
2021/12/18 08:39:11;;;;;;;;;;;;;;;;;;5030832;28;1728;-76
2021/12/18 08:41:38;;;;;;;;;;;;;;;;;;5029908;28;1527;-76
2021/12/18 08:44:03;;;;;;;;;;;;;;;;;;5026919;28;1773;-75
2021/12/18 08:46:29;;;;;;;;;;;;;;;;;;5028500;28;1568;-76
2021/12/18 08:48:56;;;;;;;;;;;;;;;;;;5033222;28;1575;-76
2021/12/18 08:51:21;;;;;;;;;;;;;;;;;;5030283;28;1580;-76
2021/12/18 08:53:46;;;;;;;;;;;;;;;;;;5030274;28;1949;-76
2021/12/18 08:56:11;;;;;;;;;;;;;;;;;;5019907;28;1593;-76
2021/12/18 08:58:37;;;;;;;;;;;;;;;;;;5019606;28;1742;-76
2021/12/18 09:01:02;;;;;;;;;;;;;;;;;;5022191;28;1896;-76
2021/12/18 09:03:27;;;;;;;;;;;;;;;;;;5013697;28;1684;-76
2021/12/18 09:05:54;;;;;;;;;;;;;;;;;;5027729;28;1634;-76
2021/12/18 09:08:19;;;;;;;;;;;;;;;;;;5026956;28;1644;-76
2021/12/18 09:10:45;;;;;;;;;;;;;;;;;;5024106;28;1645;-76
2021/12/18 09:13:10;;;;;;;;;;;;;;;;;;5021437;28;2298;-76
2021/12/18 09:15:35;;;;;;;;;;;;;;;;;;5028019;28;1706;-78
2021/12/18 09:18:00;;;;;;;;;;;;;;;;;;5023336;28;1540;-78
2021/12/18 09:20:25;;;;;;;;;;;;;;;;;;5020389;28;1740;-79
2021/12/18 09:22:51;;;;;;;;;;;;;;;;;;5024334;28;1568;-78
2021/12/18 09:25:16;;;;;;;;;;;;;;;;;;5021460;28;1623;-78
2021/12/18 09:27:41;;;;;;;;;;;;;;;;;;5033422;28;1653;-76
2021/12/18 09:30:08;;;;;;;;;;;;;;;;;;5028920;28;1631;-76
2021/12/18 09:32:33;;;;;;;;;;;;;;;;;;5045723;28;1906;-77
2021/12/18 09:35:03;;;;;;;;;;;;;;;;;;5028177;28;1683;-78
2021/12/18 09:37:28;;;;;;;;;;;;;;;;;;5029851;28;1984;-78
2021/12/18 09:39:58;;;;;;;;;;;;;;;;;;5058351;28;1763;-78
2021/12/18 09:42:23;;;;;;;;;;;;;;;;;;5029159;28;1864;-78
2021/12/18 09:44:49;;;;;;;;;;;;;;;;;;5026069;28;1610;-78
2021/12/18 09:47:14;;;;;;;;;;;;;;;;;;5013723;28;1619;-77
2021/12/18 09:49:39;;;;;;;;;;;;;;;;;;5029343;28;1349;-77
2021/12/18 09:52:05;;;;;;;;;;;;;;;;;;5016227;28;1673;-75
2021/12/18 09:54:30;;;;;;;;;;;;;;;;;;5012392;28;1906;-78
2021/12/18 09:56:55;;;;;;;;;;;;;;;;;;5016239;28;1657;-78
2021/12/18 09:59:20;;;;;;;;;;;;;;;;;;5012803;28;1422;-77
2021/12/18 10:01:46;;;;;;;;;;;;;;;;;;5030610;28;2107;-77
2021/12/18 10:04:29;;;;;;;;;;;;;;;;;;5010365;28;1720;-77
2021/12/18 10:06:58;;;;;;;;;;;;;;;;;;5025476;28;1933;-77
2021/12/18 10:09:23;;;;;;;;;;;;;;;;;;5018099;28;1770;-77
2021/12/18 10:11:54;;;;;;;;;;;;;;;;;;5024468;28;1651;-77
2021/12/18 10:14:20;;;;;;;;;;;;;;;;;;5026196;28;1965;-77
2021/12/18 10:16:49;;;;;;;;;;;;;;;;;;5045886;28;1795;-77
2021/12/18 10:19:27;;;;;;;;;;;;;;;;;;5023639;28;1664;-78
2021/12/18 10:22:03;;;;;;;;;;;;;;;;;;5037950;28;1539;-77
2021/12/18 10:24:29;;;;;;;;;;;;;;;;;;5026021;28;1712;-77
2021/12/18 10:26:54;;;;;;;;;;;;;;;;;;5057510;28;1670;-77
2021/12/18 10:29:30;;;;;;;;;;;;;;;;;;5023762;28;1752;-79
2021/12/18 10:31:56;;;;;;;;;;;;;;;;;;5019032;28;1575;-79
2021/12/18 10:34:23;;;;;;;;;;;;;;;;;;5047204;28;1910;-79
2021/12/18 10:37:06;;;;;;;;;;;;;;;;;;5047910;28;1616;-79
2021/12/18 10:39:34;;;;;;;;;;;;;;;;;;5033543;28;1673;-79
2021/12/18 10:42:13;;;;;;;;;;;;;;;;;;5034374;28;1386;-77
2021/12/18 10:44:42;;;;;;;;;;;;;;;;;;5017858;28;1669;-78
2021/12/18 10:47:07;;;;;;;;;;;;;;;;;;5034346;28;1597;-82
2021/12/18 10:49:39;;;;;;;;;;;;;;;;;;5030037;28;1717;-78
2021/12/18 10:52:04;;;;;;;;;;;;;;;;;;5032493;28;1330;-78
2021/12/18 10:54:35;;;;;;;;;;;;;;;;;;5029514;28;1906;-79
2021/12/18 10:57:00;;;;;;;;;;;;;;;;;;5031026;28;1424;-79
2021/12/18 10:59:31;;;;;;;;;;;;;;;;;;5032106;28;1642;-78
2021/12/18 11:01:59;;;;;;;;;;;;;;;;;;5032366;28;1722;-79
2021/12/18 11:04:31;;;;;;;;;;;;;;;;;;5033450;28;1604;-79
2021/12/18 11:06:57;;;;;;;;;;;;;;;;;;5032459;28;1325;-78
2021/12/18 11:09:31;;;;;;;;;;;;;;;;;;5028883;28;1632;-79
2021/12/18 11:14:41;;;;;;;;;;;;;;;;;;5031710;28;1973;-78
2021/12/18 11:17:09;;;;;;;;;;;;;;;;;;5034030;28;1276;-78
2021/12/18 11:19:35;;;;;;;;;;;;;;;;;;5032565;28;1959;-79
2021/12/18 11:22:02;;;;;;;;;;;;;;;;;;5033317;28;1504;-78
2021/12/18 11:24:35;;;;;;;;;;;;;;;;;;5033142;28;1460;-79
2021/12/18 11:27:02;;;;;;;;;;;;;;;;;;5033200;28;1914;-79
2021/12/18 11:29:34;;;;;;;;;;;;;;;;;;5024185;28;1611;-78
2021/12/18 11:31:59;;;;;;;;;;;;;;;;;;5028028;28;1619;-78
2021/12/18 11:34:25;;;;;;;;;;;;;;;;;;5033037;28;1973;-78
2021/12/18 11:36:50;;;;;;;;;;;;;;;;;;5029263;28;1736;-77
2021/12/18 11:39:16;;;;;;;;;;;;;;;;;;5030791;28;1587;-77
2021/12/18 11:41:41;;;;;;;;;;;;;;;;;;5032092;28;1618;-79
2021/12/18 11:44:28;;;;;;;;;;;;;;;;;;5032276;28;1532;-78
2021/12/18 11:46:53;;;;;;;;;;;;;;;;;;5030238;28;1709;-78
2021/12/18 11:49:21;;;;;;;;;;;;;;;;;;5029003;28;1629;-77
2021/12/18 11:52:16;;;;;;;;;;;;;;;;;;5030923;28;1581;-79
2021/12/18 11:54:44;;;;;;;;;;;;;;;;;;5023351;28;1910;-78
2021/12/18 11:57:09;;;;;;;;;;;;;;;;;;5032036;28;1595;-77
2021/12/18 11:59:45;;;;;;;;;;;;;;;;;;5032663;28;1824;-77
2021/12/18 12:02:11;;;;;;;;;;;;;;;;;;5026646;28;1642;-77
2021/12/18 12:04:55;;;;;;;;;;;;;;;;;;5053352;28;1576;-78
2021/12/18 12:07:23;;;;;;;;;;;;;;;;;;5030882;28;1698;-78
2021/12/18 12:10:12;;;;;;;;;;;;;;;;;;5031805;28;1838;-78
2021/12/18 12:12:57;;;;;;;;;;;;;;;;;;5029581;28;1768;-78
2021/12/18 12:15:40;;;;;;;;;;;;;;;;;;5030321;28;1348;-77
2021/12/18 12:18:08;;;;;;;;;;;;;;;;;;5026469;28;1587;-78
2021/12/18 12:20:38;;;;;;;;;;;;;;;;;;5027660;28;1510;-78
2021/12/18 12:23:04;;;;;;;;;;;;;;;;;;5031759;28;1627;-78
2021/12/18 12:25:39;;;;;;;;;;;;;;;;;;5025340;28;1549;-77
2021/12/18 12:28:05;;;;;;;;;;;;;;;;;;5032086;28;1262;-78
2021/12/18 12:30:30;;;;;;;;;;;;;;;;;;5025665;28;1560;-78
2021/12/18 12:33:18;;;;;;;;;;;;;;;;;;5029317;28;1918;-78
2021/12/18 12:35:56;;;;;;;;;;;;;;;;;;5029086;28;1771;-77
2021/12/18 12:38:25;;;;;;;;;;;;;;;;;;5031651;28;1172;-77
2021/12/18 12:40:50;;;;;;;;;;;;;;;;;;5026357;28;1884;-76
2021/12/18 12:43:24;;;;;;;;;;;;;;;;;;5032604;28;1244;-78
2021/12/18 12:45:54;;;;;;;;;;;;;;;;;;5031009;28;1622;-77
2021/12/18 12:48:19;;;;;;;;;;;;;;;;;;5029266;28;1538;-77
2021/12/18 12:50:57;;;;;;;;;;;;;;;;;;5032258;28;1670;-77
2021/12/18 12:53:35;;;;;;;;;;;;;;;;;;5054666;28;1961;-77
2021/12/18 12:56:15;;;;;;;;;;;;;;;;;;5028357;28;1678;-77
2021/12/18 12:58:40;;;;;;;;;;;;;;;;;;5027922;28;1628;-77
2021/12/18 13:01:11;;;;;;;;;;;;;;;;;;5028442;28;1604;-76
2021/12/18 13:03:48;;;;;;;;;;;;;;;;;;5033116;28;1445;-77
2021/12/18 13:06:37;;;;;;;;;;;;;;;;;;5029724;28;1627;-77
2021/12/18 13:09:02;;;;;;;;;;;;;;;;;;5026947;28;1495;-77
2021/12/18 13:11:34;;;;;;;;;;;;;;;;;;5031591;28;1632;-77
2021/12/18 13:14:11;;;;;;;;;;;;;;;;;;5030362;28;1973;-77
2021/12/18 13:17:01;;;;;;;;;;;;;;;;;;5024729;28;1595;-77
2021/12/18 13:19:38;;;;;;;;;;;;;;;;;;5032409;28;1431;-77
2021/12/18 13:28:03;;;;;;;;;;;;;;;;;;5028802;28;1670;-77
2021/12/18 13:30:41;;;;;;;;;;;;;;;;;;5030542;28;1551;-77
2021/12/18 13:33:13;;;;;;;;;;;;;;;;;;5026172;28;1909;-78
2021/12/18 13:35:46;;;;;;;;;;;;;;;;;;5031848;28;1507;-78
2021/12/18 13:38:33;;;;;;;;;;;;;;;;;;5030347;28;1520;-78
2021/12/18 13:41:03;;;;;;;;;;;;;;;;;;5027443;28;1444;-77
2021/12/18 13:43:28;;;;;;;;;;;;;;;;;;5028611;28;1523;-77
2021/12/18 13:46:05;;;;;;;;;;;;;;;;;;5025873;28;1592;-77
2021/12/18 13:48:38;;;;;;;;;;;;;;;;;;5027607;28;1568;-77
2021/12/18 13:51:11;;;;;;;;;;;;;;;;;;5033616;28;1639;-78
2021/12/18 13:53:57;;;;;;;;;;;;;;;;;;5014186;28;1898;-78
2021/12/18 13:56:22;;;;;;;;;;;;;;;;;;5025785;28;1455;-77
2021/12/18 13:58:48;;;;;;;;;;;;;;;;;;5033635;28;1619;-77
2021/12/18 14:01:14;;;;;;;;;;;;;;;;;;5054157;28;1689;-77
2021/12/18 14:03:51;;;;;;;;;;;;;;;;;;5022723;28;1709;-77
2021/12/18 14:06:17;;;;;;;;;;;;;;;;;;5031789;28;878;-77
2021/12/18 14:08:47;;;;;;;;;;;;;;;;;;5025094;28;1643;-78
2021/12/18 14:11:17;;;;;;;;;;;;;;;;;;5045878;28;1280;-78
2021/12/18 14:13:49;;;;;;;;;;;;;;;;;;5022163;28;1902;-78
2021/12/18 14:16:15;;;;;;;;;;;;;;;;;;5032462;28;1058;-78
2021/12/18 14:18:49;;;;;;;;;;;;;;;;;;5029324;28;1611;-78
2021/12/18 14:21:17;;;;;;;;;;;;;;;;;;5026841;28;1536;-78
2021/12/18 14:23:46;;;;;;;;;;;;;;;;;;5027258;28;1597;-78
2021/12/18 14:26:55;;;;;;;;;;;;;;;;;;5029910;28;1637;-78
2021/12/18 14:29:38;;;;;;;;;;;;;;;;;;5012764;28;1631;-78
2021/12/18 14:32:10;;;;;;;;;;;;;;;;;;5031947;28;1228;-78
2021/12/18 14:34:58;;;;;;;;;;;;;;;;;;5037859;28;1973;-78
2021/12/18 14:40:18;;;;;;;;;;;;;;;;;;5013078;28;1561;-78
2021/12/18 14:43:06;;;;;;;;;;;;;;;;;;5011484;28;1245;-79
2021/12/18 14:45:38;;;;;;;;;;;;;;;;;;5024423;28;1539;-79
2021/12/18 14:48:07;;;;;;;;;;;;;;;;;;5023735;28;1638;-78
2021/12/18 14:53:31;;;;;;;;;;;;;;;;;;5031426;28;1910;-78
2021/12/18 14:58:51;;;;;;;;;;;;;;;;;;5034565;28;1611;-79
2021/12/18 15:01:29;;;;;;;;;;;;;;;;;;5031037;28;1584;-79
2021/12/18 15:03:56;;;;;;;;;;;;;;;;;;5031625;28;1580;-78
2021/12/18 15:06:44;;;;;;;;;;;;;;;;;;5064721;28;1624;-78
2021/12/18 15:09:12;;;;;;;;;;;;;;;;;;5024518;28;1611;-79
2021/12/18 15:11:46;;;;;;;;;;;;;;;;;;5030144;28;1666;-79
2021/12/18 15:14:28;;;;;;;;;;;;;;;;;;5029526;28;1922;-78
2021/12/18 15:17:18;;;;;;;;;;;;;;;;;;5060249;28;1577;-78
2021/12/18 15:20:07;;;;;;;;;;;;;;;;;;5039467;28;1635;-77
2021/12/18 15:22:32;;;;;;;;;;;;;;;;;;5025800;28;1851;-77
2021/12/18 15:25:00;;;;;;;;;;;;;;;;;;5070029;28;1571;-78
2021/12/18 15:27:28;;;;;;;;;;;;;;;;;;5014497;28;2177;-77
2021/12/18 15:30:35;;;;;;;;;;;;;;;;;;5028216;28;3158;-77
2021/12/18 15:32:59;;;;;;;;;;;;;;;;;;5010660;28;1966;-77
2021/12/18 15:38:50;;;;;;;;;;;;;;;;;;5016567;28;1621;-78
2021/12/18 15:43:48;;;;;;;;;;;;;;;;;;5149684;22;2084;-73
2021/12/18 15:46:16;;;;;;;;;;;;;;;;;;4992226;28;1780;-77
2021/12/18 15:49:03;;;;;;;;;;;;;;;;;;4980739;28;1801;-74
2021/12/18 15:51:31;;;;;;;;;;;;;;;;;;4978279;28;1696;-74
2021/12/18 15:54:20;;;;;;;;;;;;;;;;;;4975052;28;1910;-73
2021/12/18 15:57:15;;;;;;;;;;;;;;;;;;4972605;28;1616;-74
2021/12/18 15:59:42;;;;;;;;;;;;;;;;;;4975321;28;1556;-74
2021/12/18 16:02:29;;;;;;;;;;;;;;;;;;4970635;28;1714;-74
2021/12/18 16:04:53;;;;;;;;;;;;;;;;;;4973897;28;1472;-74
2021/12/18 16:07:19;;;;;;;;;;;;;;;;;;4974936;28;1625;-74
2021/12/18 16:09:48;;;;;;;;;;;;;;;;;;4987563;28;1754;-74
2021/12/18 16:12:14;;;;;;;;;;;;;;;;;;4956390;28;1201;-75
2021/12/18 16:14:39;;;;;;;;;;;;;;;;;;4971174;28;1979;-74
2021/12/18 16:17:04;;;;;;;;;;;;;;;;;;4970859;28;1706;-74
2021/12/18 16:19:34;;;;;;;;;;;;;;;;;;4973871;28;1464;-74
2021/12/18 16:22:02;;;;;;;;;;;;;;;;;;4972301;28;1604;-74
2021/12/18 16:24:27;;;;;;;;;;;;;;;;;;4973383;28;1839;-74
2021/12/18 16:26:53;;;;;;;;;;;;;;;;;;4974402;28;1636;-75
2021/12/18 16:29:34;;;;;;;;;;;;;;;;;;;;;
2021/12/18 16:32:02;;;;;;;;;;;;;;;;;;4971165;28;1680;-75
2021/12/18 16:34:33;;;;;;;;;;;;;;;;;;4978956;28;1915;-74
2021/12/18 16:37:05;;;;;;;;;;;;;;;;;;4979811;28;1641;-74
2021/12/18 16:39:34;;;;;;;;;;;;;;;;;;4973067;28;1625;-74
2021/12/18 16:42:05;;;;;;;;;;;;;;;;;;4973492;28;1676;-74
2021/12/18 16:44:31;;;;;;;;;;;;;;;;;;4972561;28;1793;-74
2021/12/18 16:46:59;;;;;;;;;;;;;;;;;;4973924;28;1679;-74
2021/12/18 16:49:50;;;;;;;;;;;;;;;;;;4973426;28;1767;-74
2021/12/18 16:52:21;;;;;;;;;;;;;;;;;;4983732;28;1668;-74
2021/12/18 16:55:07;;;;;;;;;;;;;;;;;;4973861;28;1914;-74
2021/12/18 16:57:33;;;;;;;;;;;;;;;;;;4968880;28;1683;-74
2021/12/18 17:00:40;;;;;;;;;;;;;;;;;;4973740;28;1695;-74
2021/12/18 17:03:02;;;;;;;;;;;;;;;;;;4967831;28;1679;-74
2021/12/18 17:05:50;;;;;;;;;;;;;;;;;;4972850;28;1757;-75
2021/12/18 17:08:17;;;;;;;;;;;;;;;;;;4967720;28;1676;-75
2021/12/18 17:11:01;;;;;;;;;;;;;;;;;;4973566;28;1827;-75
2021/12/18 17:13:29;;;;;;;;;;;;;;;;;;4974207;28;1954;-75
2021/12/18 17:15:54;;;;;;;;;;;;;;;;;;4973669;28;1711;-75
2021/12/18 17:18:49;;;;;;;;;;;;;;;;;;4973262;28;1527;-74
2021/12/18 19:10:54;;;;;;;;;;;;;;;;;;5000537;28;1977;-69
2021/12/18 19:13:22;;;;;;;;;;;;;;;;;;5007844;28;1973;-70
2021/12/18 19:15:51;;;;;;;;;;;;;;;;;;5032872;28;1481;-70
2021/12/18 19:18:50;;;;;;;;;;;;;;;;;;5016251;28;2060;-70
2021/12/18 19:21:23;;;;;;;;;;;;;;;;;;5000891;28;1543;-70
2021/12/18 19:24:03;;;;;;;;;;;;;;;;;;5015826;28;1607;-70
2021/12/18 19:26:29;;;;;;;;;;;;;;;;;;5014246;28;1599;-69
2021/12/18 19:28:57;;;;;;;;;;;;;;;;;;5014583;28;1619;-69
2021/12/18 19:31:41;;;;;;;;;;;;;;;;;;4997471;28;1730;-69
2021/12/18 19:37:16;;;;;;;;;;;;;;;;;;;;;
2021/12/18 19:39:50;;;;;;;;;;;;;;;;;;5015171;28;1869;-69
2021/12/18 19:42:16;;;;;;;;;;;;;;;;;;5012360;28;1678;-70
2021/12/18 19:44:50;;;;;;;;;;;;;;;;;;4996837;28;1695;-70
2021/12/18 19:47:18;;;;;;;;;;;;;;;;;;5012685;28;1852;-70
2021/12/18 19:49:49;;;;;;;;;;;;;;;;;;5014714;28;1038;-70
2021/12/18 19:52:14;;;;;;;;;;;;;;;;;;5013544;28;1679;-70
2021/12/18 19:54:51;;;;;;;;;;;;;;;;;;5014177;28;1906;-70
2021/12/18 19:57:18;;;;;;;;;;;;;;;;;;5013193;28;1681;-70
2021/12/18 20:00:05;;;;;;;;;;;;;;;;;;5014248;28;1686;-70
2021/12/18 20:02:33;;;;;;;;;;;;;;;;;;4992711;28;1770;-69
2021/12/18 20:05:04;;;;;;;;;;;;;;;;;;5013662;28;835;-70
2021/12/18 20:07:51;;;;;;;;;;;;;;;;;;5012188;28;1856;-70
2021/12/18 20:10:22;;;;;;;;;;;;;;;;;;5006452;28;1781;-70
2021/12/18 20:12:48;;;;;;;;;;;;;;;;;;4995733;28;1661;-70
2021/12/18 20:15:16;;;;;;;;;;;;;;;;;;5014082;28;1911;-70